sensor_id;sensor_type;location;lat;lon;timestamp;P1;durP1;ratioP1;P2;durP2;ratioP2
15230;SDS011;32569;51.762;8.564;2024-02-14T00:01:18;1.70;;;1.60;;
15230;SDS011;32569;51.762;8.564;2024-02-14T00:03:45;2.53;;;1.80;;
15230;SDS011;32569;51.762;8.564;2024-02-14T00:06:12;1.93;;;1.83;;
15230;SDS011;32569;51.762;8.564;2024-02-14T00:08:40;1.70;;;1.60;;
15230;SDS011;32569;51.762;8.564;2024-02-14T00:11:07;1.93;;;1.83;;
15230;SDS011;32569;51.762;8.564;2024-02-14T00:13:33;1.60;;;1.50;;
15230;SDS011;32569;51.762;8.564;2024-02-14T00:16:00;1.73;;;1.70;;
15230;SDS011;32569;51.762;8.564;2024-02-14T00:18:27;2.00;;;1.80;;
15230;SDS011;32569;51.762;8.564;2024-02-14T00:20:54;1.90;;;1.80;;
15230;SDS011;32569;51.762;8.564;2024-02-14T00:23:21;2.07;;;1.83;;
15230;SDS011;32569;51.762;8.564;2024-02-14T00:25:48;1.60;;;1.50;;
15230;SDS011;32569;51.762;8.564;2024-02-14T00:28:15;1.63;;;1.53;;
15230;SDS011;32569;51.762;8.564;2024-02-14T00:30:42;1.93;;;1.83;;
15230;SDS011;32569;51.762;8.564;2024-02-14T00:33:09;2.17;;;2.07;;
15230;SDS011;32569;51.762;8.564;2024-02-14T00:35:36;2.37;;;2.27;;
15230;SDS011;32569;51.762;8.564;2024-02-14T00:38:02;1.80;;;1.70;;
15230;SDS011;32569;51.762;8.564;2024-02-14T00:40:29;1.80;;;1.70;;
15230;SDS011;32569;51.762;8.564;2024-02-14T00:42:58;1.83;;;1.73;;
15230;SDS011;32569;51.762;8.564;2024-02-14T00:45:25;1.93;;;1.83;;
15230;SDS011;32569;51.762;8.564;2024-02-14T00:47:52;1.90;;;1.80;;
15230;SDS011;32569;51.762;8.564;2024-02-14T00:50:18;1.80;;;1.70;;
15230;SDS011;32569;51.762;8.564;2024-02-14T00:52:45;1.90;;;1.80;;
15230;SDS011;32569;51.762;8.564;2024-02-14T00:55:12;1.70;;;1.60;;
15230;SDS011;32569;51.762;8.564;2024-02-14T00:57:38;1.97;;;1.77;;
15230;SDS011;32569;51.762;8.564;2024-02-14T01:00:07;1.90;;;1.80;;
15230;SDS011;32569;51.762;8.564;2024-02-14T01:02:34;1.80;;;1.70;;
15230;SDS011;32569;51.762;8.564;2024-02-14T01:05:01;2.00;;;1.90;;
15230;SDS011;32569;51.762;8.564;2024-02-14T01:07:29;1.93;;;1.83;;
15230;SDS011;32569;51.762;8.564;2024-02-14T01:09:56;2.00;;;1.67;;
15230;SDS011;32569;51.762;8.564;2024-02-14T01:12:23;1.60;;;1.53;;
15230;SDS011;32569;51.762;8.564;2024-02-14T01:14:49;1.93;;;1.50;;
15230;SDS011;32569;51.762;8.564;2024-02-14T01:17:17;2.17;;;1.97;;
15230;SDS011;32569;51.762;8.564;2024-02-14T01:19:44;1.80;;;1.70;;
15230;SDS011;32569;51.762;8.564;2024-02-14T01:22:11;1.80;;;1.70;;
15230;SDS011;32569;51.762;8.564;2024-02-14T01:24:41;1.70;;;1.60;;
15230;SDS011;32569;51.762;8.564;2024-02-14T01:27:08;1.73;;;1.57;;
15230;SDS011;32569;51.762;8.564;2024-02-14T01:29:35;3.53;;;1.80;;
15230;SDS011;32569;51.762;8.564;2024-02-14T01:32:01;1.90;;;1.70;;
15230;SDS011;32569;51.762;8.564;2024-02-14T01:34:30;1.67;;;1.60;;
15230;SDS011;32569;51.762;8.564;2024-02-14T01:36:57;1.57;;;1.50;;
15230;SDS011;32569;51.762;8.564;2024-02-14T01:39:24;1.63;;;1.53;;
15230;SDS011;32569;51.762;8.564;2024-02-14T01:41:50;1.70;;;1.60;;
15230;SDS011;32569;51.762;8.564;2024-02-14T01:44:17;1.60;;;1.50;;
15230;SDS011;32569;51.762;8.564;2024-02-14T01:46:45;1.60;;;1.50;;
15230;SDS011;32569;51.762;8.564;2024-02-14T01:49:12;1.40;;;1.30;;
15230;SDS011;32569;51.762;8.564;2024-02-14T01:51:43;1.20;;;1.20;;
15230;SDS011;32569;51.762;8.564;2024-02-14T01:54:12;1.60;;;1.50;;
15230;SDS011;32569;51.762;8.564;2024-02-14T01:56:39;1.10;;;1.10;;
15230;SDS011;32569;51.762;8.564;2024-02-14T01:59:06;1.40;;;1.30;;
15230;SDS011;32569;51.762;8.564;2024-02-14T02:01:35;1.80;;;1.70;;
15230;SDS011;32569;51.762;8.564;2024-02-14T02:04:02;1.50;;;1.40;;
15230;SDS011;32569;51.762;8.564;2024-02-14T02:06:29;1.40;;;1.30;;
15230;SDS011;32569;51.762;8.564;2024-02-14T02:08:58;1.50;;;1.40;;
15230;SDS011;32569;51.762;8.564;2024-02-14T02:11:25;1.33;;;1.30;;
15230;SDS011;32569;51.762;8.564;2024-02-14T02:13:52;1.40;;;1.30;;
15230;SDS011;32569;51.762;8.564;2024-02-14T02:16:19;1.30;;;1.30;;
15230;SDS011;32569;51.762;8.564;2024-02-14T02:18:46;1.20;;;1.20;;
15230;SDS011;32569;51.762;8.564;2024-02-14T02:21:13;1.43;;;1.33;;
15230;SDS011;32569;51.762;8.564;2024-02-14T02:23:41;1.77;;;1.63;;
15230;SDS011;32569;51.762;8.564;2024-02-14T02:26:10;1.53;;;1.37;;
15230;SDS011;32569;51.762;8.564;2024-02-14T02:28:37;1.30;;;1.30;;
15230;SDS011;32569;51.762;8.564;2024-02-14T02:31:04;1.20;;;1.20;;
15230;SDS011;32569;51.762;8.564;2024-02-14T02:33:32;1.33;;;1.30;;
15230;SDS011;32569;51.762;8.564;2024-02-14T02:35:58;2.70;;;1.30;;
15230;SDS011;32569;51.762;8.564;2024-02-14T02:38:25;1.40;;;1.40;;
15230;SDS011;32569;51.762;8.564;2024-02-14T02:40:53;1.50;;;1.40;;
15230;SDS011;32569;51.762;8.564;2024-02-14T02:43:19;1.30;;;1.30;;
15230;SDS011;32569;51.762;8.564;2024-02-14T02:45:46;1.50;;;1.40;;
15230;SDS011;32569;51.762;8.564;2024-02-14T02:48:13;1.10;;;1.10;;
15230;SDS011;32569;51.762;8.564;2024-02-14T02:50:40;1.17;;;1.17;;
15230;SDS011;32569;51.762;8.564;2024-02-14T02:53:07;1.40;;;1.40;;
15230;SDS011;32569;51.762;8.564;2024-02-14T02:55:34;1.47;;;1.37;;
15230;SDS011;32569;51.762;8.564;2024-02-14T02:58:03;1.20;;;1.20;;
15230;SDS011;32569;51.762;8.564;2024-02-14T03:00:30;1.43;;;1.27;;
15230;SDS011;32569;51.762;8.564;2024-02-14T03:02:57;1.33;;;1.30;;
15230;SDS011;32569;51.762;8.564;2024-02-14T03:05:24;1.37;;;1.30;;
15230;SDS011;32569;51.762;8.564;2024-02-14T03:07:50;1.23;;;1.23;;
15230;SDS011;32569;51.762;8.564;2024-02-14T03:10:17;1.40;;;1.30;;
15230;SDS011;32569;51.762;8.564;2024-02-14T03:12:46;1.50;;;1.40;;
15230;SDS011;32569;51.762;8.564;2024-02-14T03:15:14;1.80;;;1.33;;
15230;SDS011;32569;51.762;8.564;2024-02-14T03:17:41;1.20;;;1.20;;
15230;SDS011;32569;51.762;8.564;2024-02-14T03:20:08;1.27;;;1.27;;
15230;SDS011;32569;51.762;8.564;2024-02-14T03:22:37;1.30;;;1.20;;
15230;SDS011;32569;51.762;8.564;2024-02-14T03:25:07;1.40;;;1.30;;
15230;SDS011;32569;51.762;8.564;2024-02-14T03:27:34;1.30;;;1.30;;
15230;SDS011;32569;51.762;8.564;2024-02-14T03:30:01;1.37;;;1.27;;
15230;SDS011;32569;51.762;8.564;2024-02-14T03:32:30;1.20;;;1.20;;
15230;SDS011;32569;51.762;8.564;2024-02-14T03:34:57;1.10;;;1.10;;
15230;SDS011;32569;51.762;8.564;2024-02-14T03:37:25;1.30;;;1.30;;
15230;SDS011;32569;51.762;8.564;2024-02-14T03:39:52;1.23;;;1.17;;
15230;SDS011;32569;51.762;8.564;2024-02-14T03:42:19;1.30;;;1.20;;
15230;SDS011;32569;51.762;8.564;2024-02-14T03:44:45;1.10;;;1.10;;
15230;SDS011;32569;51.762;8.564;2024-02-14T03:47:12;1.10;;;1.10;;
15230;SDS011;32569;51.762;8.564;2024-02-14T03:49:40;1.20;;;1.20;;
15230;SDS011;32569;51.762;8.564;2024-02-14T03:52:07;1.10;;;1.10;;
15230;SDS011;32569;51.762;8.564;2024-02-14T03:54:35;1.10;;;1.10;;
15230;SDS011;32569;51.762;8.564;2024-02-14T03:57:01;1.30;;;1.30;;
15230;SDS011;32569;51.762;8.564;2024-02-14T03:59:29;1.27;;;1.27;;
15230;SDS011;32569;51.762;8.564;2024-02-14T04:01:56;1.07;;;1.07;;
15230;SDS011;32569;51.762;8.564;2024-02-14T04:04:26;1.57;;;1.40;;
15230;SDS011;32569;51.762;8.564;2024-02-14T04:06:54;0.90;;;0.90;;
15230;SDS011;32569;51.762;8.564;2024-02-14T04:09:23;0.97;;;0.97;;
15230;SDS011;32569;51.762;8.564;2024-02-14T04:11:50;1.00;;;1.00;;
15230;SDS011;32569;51.762;8.564;2024-02-14T04:14:16;1.03;;;1.03;;
15230;SDS011;32569;51.762;8.564;2024-02-14T04:16:53;1.60;;;1.50;;
15230;SDS011;32569;51.762;8.564;2024-02-14T04:19:27;1.00;;;1.00;;
15230;SDS011;32569;51.762;8.564;2024-02-14T04:21:55;1.27;;;1.13;;
15230;SDS011;32569;51.762;8.564;2024-02-14T04:24:21;1.20;;;1.10;;
15230;SDS011;32569;51.762;8.564;2024-02-14T04:26:48;1.00;;;1.00;;
15230;SDS011;32569;51.762;8.564;2024-02-14T04:29:15;1.40;;;1.30;;
15230;SDS011;32569;51.762;8.564;2024-02-14T04:31:42;1.03;;;1.03;;
15230;SDS011;32569;51.762;8.564;2024-02-14T04:34:11;1.10;;;1.10;;
15230;SDS011;32569;51.762;8.564;2024-02-14T04:36:38;1.10;;;1.10;;
15230;SDS011;32569;51.762;8.564;2024-02-14T04:39:07;1.30;;;1.30;;
15230;SDS011;32569;51.762;8.564;2024-02-14T04:41:36;1.10;;;1.10;;
15230;SDS011;32569;51.762;8.564;2024-02-14T04:44:04;1.10;;;1.10;;
15230;SDS011;32569;51.762;8.564;2024-02-14T04:46:31;1.03;;;1.03;;
15230;SDS011;32569;51.762;8.564;2024-02-14T04:48:59;1.40;;;1.30;;
15230;SDS011;32569;51.762;8.564;2024-02-14T04:51:28;1.00;;;1.00;;
15230;SDS011;32569;51.762;8.564;2024-02-14T04:53:54;1.50;;;1.40;;
15230;SDS011;32569;51.762;8.564;2024-02-14T04:56:24;1.30;;;1.30;;
15230;SDS011;32569;51.762;8.564;2024-02-14T04:58:52;1.20;;;1.20;;
15230;SDS011;32569;51.762;8.564;2024-02-14T05:01:19;1.33;;;1.33;;
15230;SDS011;32569;51.762;8.564;2024-02-14T05:03:46;1.20;;;1.20;;
15230;SDS011;32569;51.762;8.564;2024-02-14T05:06:13;1.20;;;1.20;;
15230;SDS011;32569;51.762;8.564;2024-02-14T05:08:40;1.60;;;1.50;;
15230;SDS011;32569;51.762;8.564;2024-02-14T05:11:07;1.50;;;1.40;;
15230;SDS011;32569;51.762;8.564;2024-02-14T05:13:35;1.23;;;1.23;;
15230;SDS011;32569;51.762;8.564;2024-02-14T05:16:03;1.10;;;1.10;;
15230;SDS011;32569;51.762;8.564;2024-02-14T05:18:29;1.10;;;1.10;;
15230;SDS011;32569;51.762;8.564;2024-02-14T05:20:56;1.20;;;1.20;;
15230;SDS011;32569;51.762;8.564;2024-02-14T05:23:23;1.10;;;1.10;;
15230;SDS011;32569;51.762;8.564;2024-02-14T05:25:50;1.20;;;1.10;;
15230;SDS011;32569;51.762;8.564;2024-02-14T05:28:18;1.10;;;1.10;;
15230;SDS011;32569;51.762;8.564;2024-02-14T05:30:47;1.20;;;1.20;;
15230;SDS011;32569;51.762;8.564;2024-02-14T05:33:19;1.10;;;1.10;;
15230;SDS011;32569;51.762;8.564;2024-02-14T05:35:47;1.13;;;1.13;;
15230;SDS011;32569;51.762;8.564;2024-02-14T05:38:14;1.10;;;1.10;;
15230;SDS011;32569;51.762;8.564;2024-02-14T05:40:41;1.20;;;1.20;;
15230;SDS011;32569;51.762;8.564;2024-02-14T05:43:09;1.43;;;1.37;;
15230;SDS011;32569;51.762;8.564;2024-02-14T05:45:35;1.40;;;1.30;;
15230;SDS011;32569;51.762;8.564;2024-02-14T05:48:04;1.20;;;1.20;;
15230;SDS011;32569;51.762;8.564;2024-02-14T05:50:31;1.50;;;1.40;;
15230;SDS011;32569;51.762;8.564;2024-02-14T05:52:58;1.40;;;1.30;;
15230;SDS011;32569;51.762;8.564;2024-02-14T05:55:25;1.40;;;1.30;;
15230;SDS011;32569;51.762;8.564;2024-02-14T05:57:51;1.30;;;1.20;;
15230;SDS011;32569;51.762;8.564;2024-02-14T06:00:18;1.47;;;1.20;;
15230;SDS011;32569;51.762;8.564;2024-02-14T06:02:46;1.10;;;1.10;;
15230;SDS011;32569;51.762;8.564;2024-02-14T06:05:14;1.10;;;1.10;;
15230;SDS011;32569;51.762;8.564;2024-02-14T06:07:41;1.40;;;1.30;;
15230;SDS011;32569;51.762;8.564;2024-02-14T06:10:10;1.20;;;1.10;;
15230;SDS011;32569;51.762;8.564;2024-02-14T06:12:37;1.53;;;1.20;;
15230;SDS011;32569;51.762;8.564;2024-02-14T06:15:06;1.30;;;1.30;;
15230;SDS011;32569;51.762;8.564;2024-02-14T06:17:33;1.40;;;1.40;;
15230;SDS011;32569;51.762;8.564;2024-02-14T06:20:00;1.17;;;1.17;;
15230;SDS011;32569;51.762;8.564;2024-02-14T06:22:32;1.50;;;1.40;;
15230;SDS011;32569;51.762;8.564;2024-02-14T06:24:59;1.30;;;1.30;;
15230;SDS011;32569;51.762;8.564;2024-02-14T06:27:25;1.70;;;1.43;;
15230;SDS011;32569;51.762;8.564;2024-02-14T06:29:53;1.40;;;1.40;;
15230;SDS011;32569;51.762;8.564;2024-02-14T06:32:20;1.40;;;1.30;;
15230;SDS011;32569;51.762;8.564;2024-02-14T06:34:47;1.20;;;1.20;;
15230;SDS011;32569;51.762;8.564;2024-02-14T06:37:13;1.23;;;1.23;;
15230;SDS011;32569;51.762;8.564;2024-02-14T06:39:41;1.50;;;1.40;;
15230;SDS011;32569;51.762;8.564;2024-02-14T06:42:08;1.47;;;1.37;;
15230;SDS011;32569;51.762;8.564;2024-02-14T06:44:34;1.50;;;1.40;;
15230;SDS011;32569;51.762;8.564;2024-02-14T06:47:01;1.40;;;1.40;;
15230;SDS011;32569;51.762;8.564;2024-02-14T06:49:28;1.60;;;1.50;;
15230;SDS011;32569;51.762;8.564;2024-02-14T06:51:54;1.30;;;1.30;;
15230;SDS011;32569;51.762;8.564;2024-02-14T06:54:21;1.40;;;1.40;;
15230;SDS011;32569;51.762;8.564;2024-02-14T06:56:52;1.53;;;1.43;;
15230;SDS011;32569;51.762;8.564;2024-02-14T06:59:18;1.60;;;1.50;;
15230;SDS011;32569;51.762;8.564;2024-02-14T07:01:45;1.33;;;1.33;;
15230;SDS011;32569;51.762;8.564;2024-02-14T07:04:12;1.47;;;1.47;;
15230;SDS011;32569;51.762;8.564;2024-02-14T07:06:39;1.53;;;1.50;;
15230;SDS011;32569;51.762;8.564;2024-02-14T07:09:05;1.30;;;1.30;;
15230;SDS011;32569;51.762;8.564;2024-02-14T07:11:32;1.43;;;1.43;;
15230;SDS011;32569;51.762;8.564;2024-02-14T07:14:04;1.50;;;1.50;;
15230;SDS011;32569;51.762;8.564;2024-02-14T07:16:31;1.30;;;1.30;;
15230;SDS011;32569;51.762;8.564;2024-02-14T07:18:57;1.53;;;1.50;;
15230;SDS011;32569;51.762;8.564;2024-02-14T07:21:24;1.43;;;1.43;;
15230;SDS011;32569;51.762;8.564;2024-02-14T07:23:51;1.50;;;1.50;;
15230;SDS011;32569;51.762;8.564;2024-02-14T07:26:18;1.50;;;1.50;;
15230;SDS011;32569;51.762;8.564;2024-02-14T07:28:45;2.37;;;1.47;;
15230;SDS011;32569;51.762;8.564;2024-02-14T07:31:13;1.50;;;1.50;;
15230;SDS011;32569;51.762;8.564;2024-02-14T07:33:40;1.70;;;1.60;;
15230;SDS011;32569;51.762;8.564;2024-02-14T07:36:08;1.60;;;1.50;;
15230;SDS011;32569;51.762;8.564;2024-02-14T07:38:35;2.03;;;1.40;;
15230;SDS011;32569;51.762;8.564;2024-02-14T07:41:01;1.60;;;1.50;;
15230;SDS011;32569;51.762;8.564;2024-02-14T07:43:28;1.40;;;1.40;;
15230;SDS011;32569;51.762;8.564;2024-02-14T07:45:54;1.50;;;1.50;;
15230;SDS011;32569;51.762;8.564;2024-02-14T07:48:22;1.70;;;1.60;;
15230;SDS011;32569;51.762;8.564;2024-02-14T07:50:49;1.47;;;1.47;;
15230;SDS011;32569;51.762;8.564;2024-02-14T07:53:15;1.70;;;1.60;;
15230;SDS011;32569;51.762;8.564;2024-02-14T08:02:26;1.17;;;1.17;;
15230;SDS011;32569;51.762;8.564;2024-02-14T08:04:55;1.53;;;1.43;;
15230;SDS011;32569;51.762;8.564;2024-02-14T08:07:22;1.33;;;1.33;;
15230;SDS011;32569;51.762;8.564;2024-02-14T08:09:49;1.33;;;1.33;;
15230;SDS011;32569;51.762;8.564;2024-02-14T08:12:15;1.50;;;1.40;;
15230;SDS011;32569;51.762;8.564;2024-02-14T08:14:42;1.30;;;1.30;;
15230;SDS011;32569;51.762;8.564;2024-02-14T08:17:08;1.20;;;1.20;;
15230;SDS011;32569;51.762;8.564;2024-02-14T08:19:35;1.30;;;1.30;;
15230;SDS011;32569;51.762;8.564;2024-02-14T08:22:03;1.30;;;1.30;;
15230;SDS011;32569;51.762;8.564;2024-02-14T08:24:31;1.20;;;1.20;;
15230;SDS011;32569;51.762;8.564;2024-02-14T08:26:58;1.30;;;1.30;;
15230;SDS011;32569;51.762;8.564;2024-02-14T08:29:24;1.40;;;1.33;;
15230;SDS011;32569;51.762;8.564;2024-02-14T08:31:51;1.47;;;1.30;;
15230;SDS011;32569;51.762;8.564;2024-02-14T08:34:18;1.50;;;1.40;;
15230;SDS011;32569;51.762;8.564;2024-02-14T08:36:45;1.43;;;1.40;;
15230;SDS011;32569;51.762;8.564;2024-02-14T08:39:13;1.47;;;1.37;;
15230;SDS011;32569;51.762;8.564;2024-02-14T08:41:43;1.40;;;1.30;;
15230;SDS011;32569;51.762;8.564;2024-02-14T08:44:12;1.30;;;1.30;;
15230;SDS011;32569;51.762;8.564;2024-02-14T08:46:38;1.20;;;1.20;;
15230;SDS011;32569;51.762;8.564;2024-02-14T08:49:07;1.40;;;1.40;;
15230;SDS011;32569;51.762;8.564;2024-02-14T08:51:34;1.67;;;1.57;;
15230;SDS011;32569;51.762;8.564;2024-02-14T08:54:01;1.40;;;1.40;;
15230;SDS011;32569;51.762;8.564;2024-02-14T08:56:31;1.30;;;1.30;;
15230;SDS011;32569;51.762;8.564;2024-02-14T08:58:58;1.20;;;1.20;;
15230;SDS011;32569;51.762;8.564;2024-02-14T09:01:26;1.20;;;1.20;;
15230;SDS011;32569;51.762;8.564;2024-02-14T09:03:52;1.40;;;1.40;;
15230;SDS011;32569;51.762;8.564;2024-02-14T09:06:19;1.37;;;1.30;;
15230;SDS011;32569;51.762;8.564;2024-02-14T09:08:46;1.60;;;1.50;;
15230;SDS011;32569;51.762;8.564;2024-02-14T09:11:13;1.77;;;1.67;;
15230;SDS011;32569;51.762;8.564;2024-02-14T09:13:41;1.10;;;1.10;;
15230;SDS011;32569;51.762;8.564;2024-02-14T09:16:08;1.20;;;1.20;;
15230;SDS011;32569;51.762;8.564;2024-02-14T09:18:36;1.30;;;1.30;;
15230;SDS011;32569;51.762;8.564;2024-02-14T09:21:03;1.50;;;1.40;;
15230;SDS011;32569;51.762;8.564;2024-02-14T09:23:30;1.57;;;1.53;;
15230;SDS011;32569;51.762;8.564;2024-02-14T09:25:57;1.20;;;1.20;;
15230;SDS011;32569;51.762;8.564;2024-02-14T09:28:23;2.00;;;1.37;;
15230;SDS011;32569;51.762;8.564;2024-02-14T09:30:52;1.43;;;1.43;;
15230;SDS011;32569;51.762;8.564;2024-02-14T09:33:19;1.30;;;1.30;;
15230;SDS011;32569;51.762;8.564;2024-02-14T09:35:46;1.20;;;1.20;;
15230;SDS011;32569;51.762;8.564;2024-02-14T09:38:13;1.50;;;1.43;;
15230;SDS011;32569;51.762;8.564;2024-02-14T09:40:40;1.30;;;1.30;;
15230;SDS011;32569;51.762;8.564;2024-02-14T09:43:09;1.53;;;1.50;;
15230;SDS011;32569;51.762;8.564;2024-02-14T09:45:42;1.20;;;1.20;;
15230;SDS011;32569;51.762;8.564;2024-02-14T09:48:11;1.20;;;1.20;;
15230;SDS011;32569;51.762;8.564;2024-02-14T09:50:40;1.30;;;1.30;;
15230;SDS011;32569;51.762;8.564;2024-02-14T09:53:07;1.27;;;1.27;;
15230;SDS011;32569;51.762;8.564;2024-02-14T09:55:35;1.27;;;1.27;;
15230;SDS011;32569;51.762;8.564;2024-02-14T09:58:03;1.30;;;1.20;;
15230;SDS011;32569;51.762;8.564;2024-02-14T10:00:32;1.00;;;1.00;;
15230;SDS011;32569;51.762;8.564;2024-02-14T10:02:59;1.30;;;1.30;;
15230;SDS011;32569;51.762;8.564;2024-02-14T10:05:27;1.00;;;1.00;;
15230;SDS011;32569;51.762;8.564;2024-02-14T10:07:54;1.00;;;1.00;;
15230;SDS011;32569;51.762;8.564;2024-02-14T10:10:22;1.27;;;1.20;;
15230;SDS011;32569;51.762;8.564;2024-02-14T10:12:49;1.50;;;1.20;;
15230;SDS011;32569;51.762;8.564;2024-02-14T10:15:16;1.03;;;1.03;;
15230;SDS011;32569;51.762;8.564;2024-02-14T10:17:43;1.10;;;1.10;;
15230;SDS011;32569;51.762;8.564;2024-02-14T10:20:09;1.13;;;1.10;;
15230;SDS011;32569;51.762;8.564;2024-02-14T10:22:44;1.00;;;1.00;;
15230;SDS011;32569;51.762;8.564;2024-02-14T10:25:11;1.23;;;1.20;;
15230;SDS011;32569;51.762;8.564;2024-02-14T10:27:40;1.10;;;1.10;;
15230;SDS011;32569;51.762;8.564;2024-02-14T10:30:07;1.07;;;1.07;;
15230;SDS011;32569;51.762;8.564;2024-02-14T10:32:35;1.20;;;1.20;;
15230;SDS011;32569;51.762;8.564;2024-02-14T10:35:03;1.20;;;1.20;;
15230;SDS011;32569;51.762;8.564;2024-02-14T10:37:33;1.00;;;1.00;;
15230;SDS011;32569;51.762;8.564;2024-02-14T10:40:03;1.10;;;1.10;;
15230;SDS011;32569;51.762;8.564;2024-02-14T10:42:31;1.27;;;1.13;;
15230;SDS011;32569;51.762;8.564;2024-02-14T10:44:58;1.40;;;1.40;;
15230;SDS011;32569;51.762;8.564;2024-02-14T10:47:31;1.47;;;1.40;;
15230;SDS011;32569;51.762;8.564;2024-02-14T10:50:02;1.13;;;1.13;;
15230;SDS011;32569;51.762;8.564;2024-02-14T10:52:30;1.47;;;1.40;;
15230;SDS011;32569;51.762;8.564;2024-02-14T10:54:58;1.40;;;1.30;;
15230;SDS011;32569;51.762;8.564;2024-02-14T10:57:28;1.10;;;1.10;;
15230;SDS011;32569;51.762;8.564;2024-02-14T10:59:56;1.40;;;1.40;;
15230;SDS011;32569;51.762;8.564;2024-02-14T11:02:24;1.20;;;1.20;;
15230;SDS011;32569;51.762;8.564;2024-02-14T11:04:52;1.30;;;1.30;;
15230;SDS011;32569;51.762;8.564;2024-02-14T11:07:19;1.37;;;1.30;;
15230;SDS011;32569;51.762;8.564;2024-02-14T11:09:48;1.33;;;1.33;;
15230;SDS011;32569;51.762;8.564;2024-02-14T11:12:15;1.73;;;1.63;;
15230;SDS011;32569;51.762;8.564;2024-02-14T11:14:43;1.57;;;1.40;;
15230;SDS011;32569;51.762;8.564;2024-02-14T11:17:10;1.20;;;1.10;;
15230;SDS011;32569;51.762;8.564;2024-02-14T11:19:38;3.27;;;1.40;;
15230;SDS011;32569;51.762;8.564;2024-02-14T11:22:11;1.70;;;1.60;;
15230;SDS011;32569;51.762;8.564;2024-02-14T11:24:38;1.10;;;1.10;;
15230;SDS011;32569;51.762;8.564;2024-02-14T11:27:09;2.43;;;1.30;;
15230;SDS011;32569;51.762;8.564;2024-02-14T11:29:38;1.00;;;1.00;;
15230;SDS011;32569;51.762;8.564;2024-02-14T11:32:06;1.60;;;1.50;;
15230;SDS011;32569;51.762;8.564;2024-02-14T11:34:34;1.10;;;1.10;;
15230;SDS011;32569;51.762;8.564;2024-02-14T11:37:01;1.13;;;1.10;;
15230;SDS011;32569;51.762;8.564;2024-02-14T11:39:29;2.40;;;1.20;;
15230;SDS011;32569;51.762;8.564;2024-02-14T11:41:58;1.10;;;1.10;;
15230;SDS011;32569;51.762;8.564;2024-02-14T11:44:24;1.10;;;1.10;;
15230;SDS011;32569;51.762;8.564;2024-02-14T11:46:51;1.07;;;1.07;;
15230;SDS011;32569;51.762;8.564;2024-02-14T11:49:20;1.17;;;1.17;;
15230;SDS011;32569;51.762;8.564;2024-02-14T11:51:47;1.30;;;1.30;;
15230;SDS011;32569;51.762;8.564;2024-02-14T11:54:14;1.00;;;1.00;;
15230;SDS011;32569;51.762;8.564;2024-02-14T11:56:42;1.20;;;1.20;;
15230;SDS011;32569;51.762;8.564;2024-02-14T11:59:08;1.13;;;1.13;;
15230;SDS011;32569;51.762;8.564;2024-02-14T12:01:36;1.20;;;1.10;;
15230;SDS011;32569;51.762;8.564;2024-02-14T12:04:04;0.87;;;0.87;;
15230;SDS011;32569;51.762;8.564;2024-02-14T12:06:33;0.90;;;0.90;;
15230;SDS011;32569;51.762;8.564;2024-02-14T12:09:01;1.00;;;1.00;;
15230;SDS011;32569;51.762;8.564;2024-02-14T12:11:30;0.90;;;0.90;;
15230;SDS011;32569;51.762;8.564;2024-02-14T12:14:00;0.97;;;0.97;;
15230;SDS011;32569;51.762;8.564;2024-02-14T12:16:28;1.13;;;1.13;;
15230;SDS011;32569;51.762;8.564;2024-02-14T12:19:03;1.00;;;1.00;;
15230;SDS011;32569;51.762;8.564;2024-02-14T12:21:34;1.20;;;1.13;;
15230;SDS011;32569;51.762;8.564;2024-02-14T12:24:01;1.20;;;1.10;;
15230;SDS011;32569;51.762;8.564;2024-02-14T12:26:29;1.10;;;1.10;;
15230;SDS011;32569;51.762;8.564;2024-02-14T12:28:57;1.70;;;1.60;;
15230;SDS011;32569;51.762;8.564;2024-02-14T12:31:24;1.80;;;1.70;;
15230;SDS011;32569;51.762;8.564;2024-02-14T12:33:51;1.40;;;1.30;;
15230;SDS011;32569;51.762;8.564;2024-02-14T12:36:20;1.30;;;1.30;;
15230;SDS011;32569;51.762;8.564;2024-02-14T12:38:48;1.17;;;1.10;;
15230;SDS011;32569;51.762;8.564;2024-02-14T12:41:16;1.37;;;1.27;;
15230;SDS011;32569;51.762;8.564;2024-02-14T12:43:43;1.30;;;1.30;;
15230;SDS011;32569;51.762;8.564;2024-02-14T12:46:10;1.13;;;1.13;;
15230;SDS011;32569;51.762;8.564;2024-02-14T12:48:36;1.27;;;1.27;;
15230;SDS011;32569;51.762;8.564;2024-02-14T12:51:03;1.30;;;1.30;;
15230;SDS011;32569;51.762;8.564;2024-02-14T12:53:30;2.47;;;1.43;;
15230;SDS011;32569;51.762;8.564;2024-02-14T12:55:58;1.70;;;1.60;;
15230;SDS011;32569;51.762;8.564;2024-02-14T12:58:26;1.60;;;1.50;;
15230;SDS011;32569;51.762;8.564;2024-02-14T13:00:53;1.20;;;1.20;;
15230;SDS011;32569;51.762;8.564;2024-02-14T13:03:19;1.37;;;1.30;;
15230;SDS011;32569;51.762;8.564;2024-02-14T13:05:46;1.20;;;1.20;;
15230;SDS011;32569;51.762;8.564;2024-02-14T13:08:13;1.50;;;1.40;;
15230;SDS011;32569;51.762;8.564;2024-02-14T13:10:41;1.20;;;1.20;;
15230;SDS011;32569;51.762;8.564;2024-02-14T13:13:11;1.17;;;1.17;;
15230;SDS011;32569;51.762;8.564;2024-02-14T13:15:39;1.57;;;1.47;;
15230;SDS011;32569;51.762;8.564;2024-02-14T13:18:08;1.00;;;1.00;;
15230;SDS011;32569;51.762;8.564;2024-02-14T13:20:34;1.10;;;1.10;;
15230;SDS011;32569;51.762;8.564;2024-02-14T13:23:02;1.60;;;1.23;;
15230;SDS011;32569;51.762;8.564;2024-02-14T13:25:30;1.30;;;1.10;;
15230;SDS011;32569;51.762;8.564;2024-02-14T13:27:57;1.30;;;1.30;;
15230;SDS011;32569;51.762;8.564;2024-02-14T13:30:25;1.23;;;1.13;;
15230;SDS011;32569;51.762;8.564;2024-02-14T13:32:51;0.90;;;0.90;;
15230;SDS011;32569;51.762;8.564;2024-02-14T13:35:18;0.97;;;0.97;;
15230;SDS011;32569;51.762;8.564;2024-02-14T13:37:45;0.97;;;0.97;;
15230;SDS011;32569;51.762;8.564;2024-02-14T13:40:12;1.00;;;1.00;;
15230;SDS011;32569;51.762;8.564;2024-02-14T13:42:39;0.93;;;0.93;;
15230;SDS011;32569;51.762;8.564;2024-02-14T13:45:06;1.10;;;1.10;;
15230;SDS011;32569;51.762;8.564;2024-02-14T13:47:36;1.00;;;0.90;;
15230;SDS011;32569;51.762;8.564;2024-02-14T13:50:04;1.07;;;1.00;;
15230;SDS011;32569;51.762;8.564;2024-02-14T13:52:31;1.00;;;1.00;;
15230;SDS011;32569;51.762;8.564;2024-02-14T13:54:58;0.83;;;0.83;;
15230;SDS011;32569;51.762;8.564;2024-02-14T13:57:24;0.90;;;0.90;;
15230;SDS011;32569;51.762;8.564;2024-02-14T13:59:51;0.90;;;0.90;;
15230;SDS011;32569;51.762;8.564;2024-02-14T14:02:19;0.83;;;0.83;;
15230;SDS011;32569;51.762;8.564;2024-02-14T14:04:47;1.23;;;1.23;;
15230;SDS011;32569;51.762;8.564;2024-02-14T14:07:14;1.10;;;1.10;;
15230;SDS011;32569;51.762;8.564;2024-02-14T14:09:40;1.00;;;1.00;;
15230;SDS011;32569;51.762;8.564;2024-02-14T14:12:07;1.00;;;1.00;;
15230;SDS011;32569;51.762;8.564;2024-02-14T14:14:36;1.00;;;1.00;;
15230;SDS011;32569;51.762;8.564;2024-02-14T14:17:02;1.40;;;1.30;;
15230;SDS011;32569;51.762;8.564;2024-02-14T14:19:30;1.20;;;1.20;;
15230;SDS011;32569;51.762;8.564;2024-02-14T14:21:58;1.23;;;1.20;;
15230;SDS011;32569;51.762;8.564;2024-02-14T14:24:24;1.20;;;1.10;;
15230;SDS011;32569;51.762;8.564;2024-02-14T14:26:51;1.60;;;1.50;;
15230;SDS011;32569;51.762;8.564;2024-02-14T14:29:18;1.47;;;1.20;;
15230;SDS011;32569;51.762;8.564;2024-02-14T14:31:45;1.63;;;1.53;;
15230;SDS011;32569;51.762;8.564;2024-02-14T14:34:12;1.60;;;1.50;;
15230;SDS011;32569;51.762;8.564;2024-02-14T14:36:38;1.20;;;1.20;;
15230;SDS011;32569;51.762;8.564;2024-02-14T14:39:07;1.27;;;1.27;;
15230;SDS011;32569;51.762;8.564;2024-02-14T14:41:36;1.40;;;1.33;;
15230;SDS011;32569;51.762;8.564;2024-02-14T14:44:03;1.67;;;1.57;;
15230;SDS011;32569;51.762;8.564;2024-02-14T14:46:29;1.50;;;1.40;;
15230;SDS011;32569;51.762;8.564;2024-02-14T14:48:56;1.77;;;1.40;;
15230;SDS011;32569;51.762;8.564;2024-02-14T14:51:23;1.63;;;1.53;;
15230;SDS011;32569;51.762;8.564;2024-02-14T14:53:50;1.40;;;1.30;;
15230;SDS011;32569;51.762;8.564;2024-02-14T14:56:18;1.60;;;1.50;;